Alford, United Kingdom
Current Conditions -  °F | °C
As of 10:20 PM on Saturday 20 Dec 2014 (Local Time) from EGPD Reporting Station
Clear Clear  
Wind Chill:   Ceiling: Unl
Heat Index:   Visibility: 6mi
Dew Point:   Wind: 6mph
Humidity: 76%   Direction: 270°W
Pressure: 30.09"   Gusts: NA
Location:  57.23°N, 2.7°W
Report Text: EGPD 202220Z 27005KT 220V300 CAVOK 05/01 Q1019 NOSIG
Loading
Personal Weather Stations






























Interactive Weather Map New forecast layout! Learn more

10-Day Weather Forecast

Advertisements
Track Severe Weather on mobile